Time;durP1;ratioP1;P1;durP2;ratioP2;P2;SDS_P1;SDS_P2;PMS_P1;PMS_P2;Temp;Humidity;BMP_temperature;BMP_pressure;BME280_temperature;BME280_humidity;BME280_pressure;Samples;Min_cycle;Max_cycle;Signal;HPM_P1;HPM_P2
2022/06/13 00:00:07;;;;;;;17.23;4.65;;;11.50;88.80;;;;;;5120816;28;20378;-81
2022/06/13 00:02:34;;;;;;;12.38;4.70;;;11.50;88.90;;;;;;5118828;28;20039;-81
2022/06/13 00:05:01;;;;;;;14.98;5.10;;;11.50;88.50;;;;;;5121360;27;20046;-81
2022/06/13 00:07:26;;;;;;;10.13;4.15;;;11.50;88.30;;;;;;5099236;28;20023;-81
2022/06/13 00:09:52;;;;;;;14.75;4.72;;;11.40;88.20;;;;;;5101273;28;20032;-81
2022/06/13 00:12:18;;;;;;;14.05;4.72;;;11.30;88.20;;;;;;5117912;28;20048;-81
2022/06/13 00:14:43;;;;;;;17.23;5.90;;;11.30;88.20;;;;;;5100797;28;20028;-82
2022/06/13 00:17:09;;;;;;;13.52;5.03;;;11.40;89.30;;;;;;5117812;28;20091;-81
2022/06/13 00:19:35;;;;;;;18.20;6.10;;;11.40;90.30;;;;;;5096561;28;20506;-82
2022/06/13 00:22:00;;;;;;;13.93;6.07;;;11.40;90.40;;;;;;5124173;27;20031;-82
2022/06/13 00:24:26;;;;;;;16.30;5.90;;;11.40;90.60;;;;;;5097833;27;20080;-81
2022/06/13 00:26:51;;;;;;;14.43;5.78;;;11.40;90.40;;;;;;5097105;27;20826;-82
2022/06/13 00:29:17;;;;;;;17.10;5.72;;;11.40;90.60;;;;;;5119026;28;20088;-81
2022/06/13 00:31:42;;;;;;;19.08;5.50;;;11.30;90.50;;;;;;5126673;27;20024;-81
2022/06/13 00:34:08;;;;;;;18.83;5.45;;;11.30;90.50;;;;;;5099772;28;20027;-81
2022/06/13 00:36:33;;;;;;;17.27;5.65;;;11.30;90.80;;;;;;5102959;28;20019;-82
2022/06/13 00:38:59;;;;;;;23.60;5.70;;;11.30;91.20;;;;;;5121144;28;20076;-82
2022/06/13 00:41:29;;;;;;;14.65;5.72;;;11.30;91.40;;;;;;5099874;28;20032;-81
2022/06/13 00:43:56;;;;;;;15.02;5.78;;;11.30;91.50;;;;;;5100329;28;20031;-81
2022/06/13 00:46:28;;;;;;;16.27;5.97;;;11.40;91.50;;;;;;5097888;28;20035;-81
2022/06/13 00:48:58;;;;;;;17.02;5.97;;;11.40;91.50;;;;;;5108149;28;20214;-81
2022/06/13 00:51:25;;;;;;;16.48;5.90;;;11.40;91.70;;;;;;5119140;28;20028;-81
2022/06/13 00:53:51;;;;;;;19.75;6.82;;;11.40;91.70;;;;;;5095587;28;20070;-82
2022/06/13 00:56:22;;;;;;;17.27;5.97;;;11.40;91.80;;;;;;5098548;28;20032;-82
2022/06/13 00:58:54;;;;;;;20.02;6.00;;;11.40;91.90;;;;;;5101095;28;20665;-82
2022/06/13 01:01:22;;;;;;;17.90;5.80;;;11.30;91.90;;;;;;5097875;28;20095;-81
2022/06/13 01:03:48;;;;;;;16.83;6.43;;;11.30;92.00;;;;;;5099371;28;20030;-82
2022/06/13 01:06:14;;;;;;;17.88;5.68;;;11.40;91.90;;;;;;5097146;28;20020;-82
2022/06/13 01:08:40;;;;;;;17.77;5.53;;;11.40;91.90;;;;;;5100455;28;20533;-82
2022/06/13 01:11:16;;;;;;;16.75;6.03;;;11.30;92.00;;;;;;5099221;28;20044;-83
2022/06/13 01:14:14;;;;;;;19.55;6.10;;;11.30;91.60;;;;;;5099643;28;20979;-81
2022/06/13 01:16:56;;;;;;;20.33;5.82;;;11.30;91.70;;;;;;5119264;28;20088;-82
2022/06/13 01:19:59;;;;;;;17.85;6.32;;;11.30;91.70;;;;;;5114733;28;20019;-82
2022/06/13 01:22:34;;;;;;;16.15;6.47;;;11.20;91.90;;;;;;5118274;27;20023;-82
2022/06/13 01:25:14;;;;;;;16.27;6.45;;;11.10;91.70;;;;;;5101585;28;20027;-82
2022/06/13 01:27:58;;;;;;;21.63;6.30;;;11.10;91.90;;;;;;5096080;28;20073;-81
2022/06/13 01:30:46;;;;;;;14.90;6.38;;;11.10;92.20;;;;;;5088776;28;20038;-81
2022/06/13 01:33:37;;;;;;;22.58;7.40;;;11.00;92.40;;;;;;5102776;28;20027;-81
2022/06/13 01:36:35;;;;;;;17.33;6.88;;;11.00;92.50;;;;;;5087607;28;20044;-82
2022/06/13 01:39:23;;;;;;;16.10;6.93;;;10.80;92.30;;;;;;5098279;28;20118;-84
2022/06/13 01:42:02;;;;;;;19.67;6.63;;;10.80;92.20;;;;;;5112758;28;20031;-82
2022/06/13 01:45:05;;;;;;;16.38;6.30;;;10.80;92.60;;;;;;5110256;28;20400;-82
2022/06/13 01:47:57;;;;;;;19.23;7.40;;;10.80;92.80;;;;;;5106973;28;20016;-81
2022/06/13 01:50:26;;;;;;;20.30;7.00;;;10.80;92.90;;;;;;5101439;28;20186;-82
2022/06/13 01:53:27;;;;;;;20.65;7.28;;;10.80;92.80;;;;;;5101415;28;20505;-81
2022/06/13 01:56:13;;;;;;;27.65;7.63;;;10.70;92.70;;;;;;5123206;27;20030;-82
2022/06/13 01:58:51;;;;;;;16.33;6.18;;;10.70;92.70;;;;;;5103370;28;20031;-82
2022/06/13 02:01:50;;;;;;;17.40;7.03;;;10.60;92.90;;;;;;5098959;28;20386;-81
2022/06/13 02:04:33;;;;;;;17.90;7.00;;;10.60;93.00;;;;;;5091538;28;20043;-81
2022/06/13 02:07:09;;;;;;;23.23;6.93;;;10.50;93.10;;;;;;5086773;28;20564;-81
2022/06/13 02:09:40;;;;;;;18.88;6.65;;;10.50;93.40;;;;;;5100190;28;20499;-81
2022/06/13 02:12:06;;;;;;;20.83;7.43;;;10.40;93.20;;;;;;5106942;28;20031;-81
2022/06/13 02:15:27;;;;;;;22.27;7.63;;;10.30;93.30;;;;;;5108937;28;20038;-81
2022/06/13 02:17:59;;;;;;;23.85;7.85;;;10.30;93.50;;;;;;5010551;28;20042;-82
2022/06/13 02:20:33;;;;;;;17.70;7.13;;;10.30;93.60;;;;;;5103296;28;20044;-82
2022/06/13 02:23:04;;;;;;;16.63;7.15;;;10.30;93.90;;;;;;5095059;28;20079;-82
2022/06/13 02:25:33;;;;;;;24.10;7.70;;;10.20;93.80;;;;;;5108930;28;20502;-82
2022/06/13 02:28:28;;;;;;;24.98;7.70;;;10.10;93.70;;;;;;5111929;28;20486;-82
2022/06/13 02:30:59;;;;;;;22.67;7.93;;;10.10;93.90;;;;;;5088232;28;20040;-82
2022/06/13 02:33:31;;;;;;;22.63;8.57;;;10.10;94.10;;;;;;5112016;28;20032;-82
2022/06/13 02:36:12;;;;;;;19.08;8.00;;;10.10;94.30;;;;;;5093004;28;20035;-82
2022/06/13 02:38:46;;;;;;;23.02;8.35;;;10.10;94.30;;;;;;5109991;28;20119;-82
2022/06/13 02:41:19;;;;;;;22.95;8.40;;;10.10;94.40;;;;;;5092374;28;20028;-82
2022/06/13 02:43:59;;;;;;;20.80;8.90;;;10.10;94.30;;;;;;5089775;28;20414;-82
2022/06/13 02:46:59;;;;;;;20.98;9.00;;;10.10;94.40;;;;;;5103655;28;20559;-82
2022/06/13 02:49:33;;;;;;;17.45;8.73;;;10.10;94.50;;;;;;5070760;28;20035;-82
2022/06/13 02:52:12;;;;;;;25.50;8.80;;;10.10;94.40;;;;;;5089819;28;20029;-82
2022/06/13 02:54:52;;;;;;;23.48;8.50;;;10.00;94.30;;;;;;5099097;28;20495;-82
2022/06/13 02:57:43;;;;;;;21.80;8.55;;;10.00;94.10;;;;;;5096284;28;20414;-82
2022/06/13 03:00:23;;;;;;;22.35;8.38;;;10.00;94.20;;;;;;5103547;27;20023;-82
2022/06/13 03:03:11;;;;;;;27.90;9.32;;;10.10;94.20;;;;;;5113364;28;20039;-82
2022/06/13 03:05:42;;;;;;;18.90;8.05;;;10.10;94.30;;;;;;5100441;28;20047;-82
2022/06/13 03:08:38;;;;;;;20.90;8.30;;;10.10;94.30;;;;;;5099100;28;20028;-82
2022/06/13 03:11:27;;;;;;;27.08;9.50;;;10.20;94.30;;;;;;5095447;28;20450;-82
2022/06/13 03:14:43;;;;;;;27.05;8.32;;;10.20;94.30;;;;;;5097782;28;20062;-82
2022/06/13 03:17:27;;;;;;;30.60;8.30;;;10.30;94.40;;;;;;5038215;28;20036;-82
2022/06/13 03:20:18;;;;;;;26.38;8.65;;;10.30;94.50;;;;;;5097432;28;20032;-82
2022/06/13 03:22:58;;;;;;;;;;;10.30;94.50;;;;;;5115844;27;20024;-82
2022/06/13 03:25:36;;;;;;;17.67;8.38;;;10.40;94.60;;;;;;5115235;28;20312;-82
2022/06/13 03:28:26;;;;;;;23.90;7.82;;;10.50;94.60;;;;;;5107452;27;20481;-83
2022/06/13 03:31:16;;;;;;;18.77;8.35;;;10.60;94.50;;;;;;5097129;28;20042;-82
2022/06/13 03:33:46;;;;;;;21.55;8.73;;;10.60;94.40;;;;;;5114854;28;20023;-82
2022/06/13 03:36:29;;;;;;;24.88;8.55;;;10.60;94.30;;;;;;5096980;27;20059;-82
2022/06/13 03:39:21;;;;;;;21.45;8.30;;;10.70;94.40;;;;;;5094153;28;20067;-82
2022/06/13 03:41:52;;;;;;;24.27;8.40;;;10.80;94.30;;;;;;5113331;28;20019;-82
2022/06/13 03:44:25;;;;;;;18.50;8.32;;;10.80;94.10;;;;;;5112820;28;20470;-82
2022/06/13 03:46:59;;;;;;;18.45;7.60;;;10.90;93.90;;;;;;5110614;28;20102;-82
2022/06/13 03:49:28;;;;;;;20.00;7.93;;;10.90;93.80;;;;;;5115285;27;20030;-82
2022/06/13 03:51:57;;;;;;;21.77;7.38;;;11.00;93.60;;;;;;5114690;27;20045;-83
2022/06/13 03:54:33;;;;;;;20.25;7.50;;;10.90;93.50;;;;;;5102560;27;20026;-83
2022/06/13 03:57:06;;;;;;;17.35;6.63;;;11.00;93.60;;;;;;5112205;28;20020;-83
2022/06/13 03:59:41;;;;;;;19.00;7.65;;;10.90;93.40;;;;;;5117504;28;20386;-83
2022/06/13 04:02:13;;;;;;;16.52;6.28;;;11.10;93.70;;;;;;5097487;28;20757;-83
2022/06/13 04:04:43;;;;;;;16.02;7.50;;;11.20;93.60;;;;;;5101116;28;20031;-83
2022/06/13 04:07:09;;;;;;;18.10;6.35;;;11.30;93.60;;;;;;5118491;28;20020;-83
2022/06/13 04:09:45;;;;;;;21.02;7.30;;;11.30;93.30;;;;;;5117895;28;20026;-83
2022/06/13 04:12:10;;;;;;;14.30;6.32;;;11.30;93.20;;;;;;5125214;27;20042;-82
2022/06/13 04:14:48;;;;;;;19.67;7.20;;;11.40;93.00;;;;;;5099745;28;20115;-83
2022/06/13 04:17:29;;;;;;;22.35;6.85;;;11.40;93.10;;;;;;5096379;28;20020;-82
2022/06/13 04:20:22;;;;;;;17.50;7.22;;;11.40;93.10;;;;;;5097724;28;20043;-83
2022/06/13 04:22:55;;;;;;;14.63;6.30;;;11.50;93.10;;;;;;5100331;28;20054;-83
2022/06/13 04:25:36;;;;;;;12.27;5.95;;;11.40;92.80;;;;;;5095390;28;20020;-83
2022/06/13 04:28:33;;;;;;;21.65;6.20;;;11.50;93.10;;;;;;5118419;28;20559;-83
2022/06/13 04:31:01;;;;;;;11.43;5.43;;;11.50;93.10;;;;;;5091775;28;20031;-83
2022/06/13 04:33:34;;;;;;;16.67;6.75;;;11.40;93.00;;;;;;5116391;28;20177;-82
2022/06/13 04:36:01;;;;;;;17.73;6.18;;;11.40;93.10;;;;;;5115969;28;20164;-82
2022/06/13 04:38:27;;;;;;;12.38;5.97;;;11.40;93.20;;;;;;5113234;28;20035;-82
2022/06/13 04:41:00;;;;;;;20.15;7.47;;;11.50;93.20;;;;;;5116356;28;20059;-82
2022/06/13 04:43:35;;;;;;;11.70;5.93;;;11.60;93.20;;;;;;5097068;28;20020;-83
2022/06/13 04:46:08;;;;;;;17.90;6.05;;;11.70;92.70;;;;;;5096438;28;20054;-82
2022/06/13 04:48:36;;;;;;;14.15;6.18;;;11.80;92.40;;;;;;5107683;28;20392;-83
2022/06/13 04:51:07;;;;;;;14.35;5.65;;;11.90;92.10;;;;;;5101529;28;20034;-82
2022/06/13 04:54:01;;;;;;;15.60;5.82;;;11.90;91.70;;;;;;5107864;27;20031;-82
2022/06/13 04:56:27;;;;;;;13.20;5.15;;;12.00;91.30;;;;;;5098529;28;20035;-82
2022/06/13 04:58:54;;;;;;;14.25;5.40;;;12.40;91.20;;;;;;5099770;28;20094;-82
2022/06/13 05:01:29;;;;;;;14.95;4.43;;;12.60;90.20;;;;;;5096250;28;20487;-82
2022/06/13 05:03:58;;;;;;;18.05;5.03;;;12.70;89.40;;;;;;5114259;27;20020;-82
2022/06/13 05:06:35;;;;;;;14.23;4.65;;;12.80;88.60;;;;;;5097945;28;20497;-82
2022/06/13 05:09:05;;;;;;;9.75;4.28;;;12.90;88.30;;;;;;5099590;28;20027;-83
2022/06/13 05:11:38;;;;;;;14.17;4.40;;;12.90;88.20;;;;;;5112731;27;20044;-83
2022/06/13 05:14:31;;;;;;;15.15;3.90;;;13.00;87.80;;;;;;5116672;28;20055;-83
2022/06/13 05:17:28;;;;;;;11.10;3.95;;;13.00;87.50;;;;;;5094742;28;20038;-83
2022/06/13 05:20:12;;;;;;;14.15;4.10;;;13.00;87.10;;;;;;5095357;28;20031;-84
2022/06/13 05:23:01;;;;;;;13.65;4.25;;;13.20;87.30;;;;;;5104135;28;20035;-83
2022/06/13 05:25:46;;;;;;;11.18;4.40;;;13.40;87.30;;;;;;5092404;28;20844;-83
2022/06/13 05:28:15;;;;;;;14.20;4.22;;;13.50;86.90;;;;;;5110681;27;20055;-83
2022/06/13 05:30:42;;;;;;;10.88;4.15;;;13.50;86.50;;;;;;5113853;28;20122;-83
2022/06/13 05:33:10;;;;;;;12.52;4.75;;;13.50;86.50;;;;;;5095926;28;20532;-83
2022/06/13 05:35:43;;;;;;;14.65;4.60;;;13.60;86.50;;;;;;5096407;28;20031;-82
2022/06/13 05:38:14;;;;;;;12.75;5.15;;;13.60;86.50;;;;;;5118401;28;20028;-81
2022/06/13 05:40:40;;;;;;;12.90;4.22;;;13.70;86.00;;;;;;5094914;28;20031;-83
2022/06/13 05:43:05;;;;;;;13.38;4.00;;;14.00;85.80;;;;;;5094642;28;20030;-83
2022/06/13 05:45:31;;;;;;;10.05;4.28;;;14.10;85.40;;;;;;5098945;28;20065;-83
2022/06/13 05:47:57;;;;;;;19.38;4.80;;;14.30;85.40;;;;;;5098378;28;20053;-83
2022/06/13 05:50:25;;;;;;;15.77;4.53;;;14.20;84.10;;;;;;5113050;28;20035;-83
2022/06/13 05:52:51;;;;;;;11.13;4.30;;;14.20;84.60;;;;;;5103183;28;20056;-83
2022/06/13 05:55:17;;;;;;;12.25;3.90;;;14.30;83.90;;;;;;5095861;28;20034;-83
2022/06/13 05:57:43;;;;;;;9.65;4.20;;;14.10;83.40;;;;;;5097179;28;20379;-83
2022/06/13 06:00:16;;;;;;;15.80;4.80;;;14.40;83.20;;;;;;5090777;28;20024;-83
2022/06/13 06:02:42;;;;;;;12.88;3.88;;;14.30;82.90;;;;;;5093387;28;20020;-84
2022/06/13 06:05:08;;;;;;;12.07;4.00;;;14.30;82.90;;;;;;5090994;28;20027;-84
2022/06/13 06:07:33;;;;;;;11.90;3.90;;;14.40;82.80;;;;;;5115987;28;20039;-84
2022/06/13 06:10:00;;;;;;;13.10;3.90;;;14.50;83.00;;;;;;5092817;28;20110;-83
2022/06/13 06:12:26;;;;;;;10.95;4.38;;;14.50;83.40;;;;;;5112441;28;20479;-83
2022/06/13 06:14:51;;;;;;;8.32;3.85;;;14.50;83.20;;;;;;5087756;28;20076;-83
2022/06/13 06:17:17;;;;;;;12.45;4.65;;;14.50;82.80;;;;;;5099276;28;20031;-83
2022/06/13 06:19:42;;;;;;;14.05;4.82;;;14.40;82.10;;;;;;5099034;28;20421;-83
2022/06/13 06:22:08;;;;;;;11.27;3.63;;;14.50;82.50;;;;;;5101701;28;20043;-83
2022/06/13 06:24:33;;;;;;;11.75;4.13;;;14.50;82.00;;;;;;5098271;28;20028;-83
2022/06/13 06:26:59;;;;;;;17.67;3.97;;;14.40;82.50;;;;;;5111839;28;20061;-83
2022/06/13 06:29:24;;;;;;;11.45;4.03;;;14.30;82.70;;;;;;5096540;28;20015;-83
2022/06/13 06:31:50;;;;;;;14.48;4.40;;;14.40;82.60;;;;;;5122763;28;20547;-83
2022/06/13 06:34:16;;;;;;;12.80;3.80;;;14.50;82.50;;;;;;5079092;28;20028;-83
2022/06/13 06:36:41;;;;;;;17.90;4.18;;;14.30;82.10;;;;;;5107094;27;20030;-83
2022/06/13 06:39:07;;;;;;;12.38;4.18;;;14.30;82.40;;;;;;5101025;28;20096;-83
2022/06/13 06:41:32;;;;;;;8.68;4.45;;;14.50;82.30;;;;;;5096636;28;20035;-83
2022/06/13 06:43:58;;;;;;;16.30;4.40;;;14.60;82.30;;;;;;5112865;28;20028;-84
2022/06/13 06:46:24;;;;;;;16.05;4.18;;;14.60;81.80;;;;;;5111014;28;20550;-83
2022/06/13 06:48:51;;;;;;;17.60;4.80;;;14.60;81.30;;;;;;5111053;27;20023;-83
2022/06/13 06:51:17;;;;;;;10.90;4.03;;;14.60;81.10;;;;;;5100588;28;20457;-84
2022/06/13 07:01:55;;;;;;;13.15;4.00;;;14.90;79.70;;;;;;5109698;27;20433;-84
2022/06/13 07:04:20;;;;;;;14.25;3.60;;;15.10;79.60;;;;;;5088471;28;20023;-83
2022/06/13 07:06:46;;;;;;;18.98;4.28;;;15.20;78.70;;;;;;5100914;28;20042;-83
2022/06/13 07:09:11;;;;;;;14.10;4.03;;;15.30;79.00;;;;;;5100707;28;20524;-83
2022/06/13 07:11:56;;;;;;;8.45;3.53;;;15.40;78.80;;;;;;5098834;28;20559;-84
2022/06/13 07:14:25;;;;;;;10.13;3.55;;;15.60;77.80;;;;;;5103289;28;20027;-83
2022/06/13 07:16:51;;;;;;;13.85;4.10;;;15.90;77.30;;;;;;5102117;28;20395;-83
2022/06/13 07:19:17;;;;;;;13.43;3.70;;;16.10;76.40;;;;;;5095824;27;20024;-84
2022/06/13 07:21:43;;;;;;;10.10;3.97;;;16.10;75.60;;;;;;5095336;28;20031;-85
2022/06/13 07:24:10;;;;;;;12.95;3.63;;;16.00;75.90;;;;;;5093452;28;20024;-84
2022/06/13 07:26:36;;;;;;;17.13;4.20;;;15.90;76.20;;;;;;5087531;27;20024;-84
2022/06/13 07:29:02;;;;;;;11.35;4.22;;;15.90;76.00;;;;;;5093584;28;20411;-84
2022/06/13 07:31:34;;;;;;;13.15;3.92;;;16.00;76.60;;;;;;5107494;28;20042;-84
2022/06/13 07:33:59;;;;;;;11.40;3.22;;;16.40;75.30;;;;;;5088349;28;20116;-84
2022/06/13 07:36:25;;;;;;;13.43;3.75;;;16.20;74.60;;;;;;5112222;27;20032;-82
2022/06/13 07:38:52;;;;;;;10.98;3.45;;;16.60;74.40;;;;;;5094432;28;20432;-83
2022/06/13 07:41:21;;;;;;;10.98;3.42;;;16.50;72.00;;;;;;5107150;28;20051;-82
2022/06/13 07:43:49;;;;;;;13.88;3.10;;;16.60;71.70;;;;;;5091331;28;20020;-85
2022/06/13 07:46:14;;;;;;;9.32;2.95;;;16.60;72.50;;;;;;5105326;28;20024;-85
2022/06/13 07:48:40;;;;;;;11.05;2.85;;;16.40;71.10;;;;;;5092080;28;20453;-85
2022/06/13 07:51:07;;;;;;;7.10;2.47;;;16.30;71.80;;;;;;5092136;27;20451;-85
2022/06/13 07:53:34;;;;;;;9.70;3.03;;;16.30;71.40;;;;;;5094845;28;20114;-85
2022/06/13 07:56:01;;;;;;;8.90;3.08;;;16.10;71.90;;;;;;5092368;28;20023;-85
2022/06/13 07:58:35;;;;;;;12.82;2.80;;;16.20;72.40;;;;;;5090002;28;20055;-84
2022/06/13 08:01:02;;;;;;;11.70;3.08;;;16.30;71.80;;;;;;5090670;28;20492;-85
2022/06/13 08:03:30;;;;;;;9.32;3.13;;;16.80;71.70;;;;;;5090619;28;20016;-85
2022/06/13 08:05:56;;;;;;;10.93;2.50;;;16.50;71.60;;;;;;5088802;27;20044;-85
2022/06/13 08:08:22;;;;;;;11.43;2.65;;;16.30;71.60;;;;;;5097706;28;20082;-85
2022/06/13 08:10:49;;;;;;;9.10;2.63;;;16.80;72.40;;;;;;5106799;27;20122;-85
2022/06/13 08:13:17;;;;;;;6.93;2.35;;;17.50;68.70;;;;;;5086318;28;20518;-85
2022/06/13 08:15:43;;;;;;;8.02;2.38;;;17.30;66.80;;;;;;5090501;28;20096;-85
2022/06/13 08:18:11;;;;;;;5.70;1.27;;;16.70;68.50;;;;;;5109951;27;20119;-86
2022/06/13 08:20:38;;;;;;;5.80;0.70;;;15.40;69.60;;;;;;5100577;28;20028;-85
2022/06/13 08:23:08;;;;;;;2.78;0.50;;;14.00;70.10;;;;;;5090001;28;20576;-85
2022/06/13 08:25:35;;;;;;;2.33;0.40;;;13.70;72.70;;;;;;5082587;28;20035;-86
2022/06/13 08:28:01;;;;;;;1.98;0.60;;;13.40;73.50;;;;;;5085766;28;20032;-85
2022/06/13 08:30:39;;;;;;;1.95;0.60;;;13.30;75.40;;;;;;5086372;28;20514;-86
2022/06/13 08:33:05;;;;;;;1.23;0.50;;;13.10;75.40;;;;;;5098787;28;20031;-84
2022/06/13 08:35:31;;;;;;;3.22;0.80;;;13.00;78.10;;;;;;5096313;28;20402;-86
2022/06/13 08:37:57;;;;;;;2.63;0.65;;;12.40;84.80;;;;;;5098574;27;20540;-86
2022/06/13 08:40:25;;;;;;;1.73;0.47;;;11.90;87.90;;;;;;5085259;28;20031;-86
2022/06/13 08:43:10;;;;;;;1.92;1.02;;;11.90;89.20;;;;;;5087691;28;20035;-86
2022/06/13 08:45:42;;;;;;;3.45;0.80;;;11.90;89.90;;;;;;5104053;28;20019;-85
2022/06/13 08:48:16;;;;;;;2.65;0.80;;;11.90;90.10;;;;;;5107672;28;20510;-84
2022/06/13 08:50:53;;;;;;;2.50;1.10;;;12.30;90.50;;;;;;5092022;28;20027;-83
2022/06/13 08:53:30;;;;;;;2.92;1.10;;;12.90;90.60;;;;;;5100476;28;20511;-84
2022/06/13 08:55:59;;;;;;;3.22;1.17;;;13.30;88.20;;;;;;5088324;28;20016;-84
2022/06/13 08:58:29;;;;;;;1.90;1.08;;;14.00;88.40;;;;;;5104852;27;20036;-84
2022/06/13 09:01:05;;;;;;;3.30;0.93;;;14.00;85.70;;;;;;5108645;27;20391;-84
2022/06/13 09:03:40;;;;;;;2.83;1.00;;;14.10;86.20;;;;;;5113028;28;20036;-83
2022/06/13 09:06:21;;;;;;;4.47;0.90;;;14.00;86.50;;;;;;5104049;27;20107;-84
2022/06/13 09:09:09;;;;;;;3.70;1.15;;;13.80;86.20;;;;;;5108649;27;20024;-84
2022/06/13 09:11:41;;;;;;;3.42;1.00;;;13.60;86.30;;;;;;5092469;28;20039;-85
2022/06/13 09:14:20;;;;;;;3.20;1.20;;;13.70;87.40;;;;;;5092304;28;20031;-84
2022/06/13 09:17:17;;;;;;;2.92;1.40;;;14.50;86.90;;;;;;5086743;28;20032;-85
2022/06/13 09:20:00;;;;;;;2.50;1.15;;;15.20;84.50;;;;;;5116690;27;20402;-85
2022/06/13 09:22:39;;;;;;;3.08;1.17;;;15.50;84.00;;;;;;5099623;28;20815;-84
2022/06/13 09:25:24;;;;;;;4.63;1.30;;;15.40;82.90;;;;;;5091867;28;20028;-85
2022/06/13 09:28:01;;;;;;;2.97;1.17;;;15.40;83.10;;;;;;5107282;27;20051;-84
2022/06/13 09:30:34;;;;;;;2.60;1.20;;;15.40;84.20;;;;;;5089123;28;20465;-85
2022/06/13 09:33:07;;;;;;;5.22;1.40;;;15.30;83.00;;;;;;5107225;28;20028;-85
2022/06/13 09:35:41;;;;;;;2.22;0.73;;;15.20;82.50;;;;;;5092486;28;20043;-85
2022/06/13 09:38:22;;;;;;;2.97;1.10;;;15.20;83.20;;;;;;5086797;28;20098;-85
2022/06/13 09:41:03;;;;;;;2.47;1.00;;;15.20;83.30;;;;;;5108381;27;20036;-85
2022/06/13 09:43:47;;;;;;;1.58;0.80;;;15.30;83.20;;;;;;5084421;28;20031;-85
2022/06/13 09:46:25;;;;;;;4.82;1.00;;;15.70;80.40;;;;;;5079344;28;20512;-85
2022/06/13 09:49:02;;;;;;;1.30;0.77;;;16.50;80.70;;;;;;5109817;28;20080;-85
2022/06/13 09:51:45;;;;;;;3.08;0.75;;;17.00;72.10;;;;;;5091994;27;20023;-85
2022/06/13 09:54:27;;;;;;;3.08;0.70;;;17.70;71.60;;;;;;5093615;28;20486;-86
2022/06/13 09:57:11;;;;;;;1.13;0.50;;;17.40;66.10;;;;;;5094865;28;20977;-85
2022/06/13 09:59:55;;;;;;;1.90;0.60;;;16.80;67.40;;;;;;5089350;28;20108;-85
2022/06/13 10:02:27;;;;;;;1.75;0.63;;;16.50;68.40;;;;;;5103705;28;20170;-85
2022/06/13 10:05:07;;;;;;;2.72;0.55;;;16.20;67.20;;;;;;5087286;28;20020;-84
2022/06/13 10:07:41;;;;;;;2.90;0.60;;;16.90;67.90;;;;;;5086350;28;20028;-84
2022/06/13 10:10:30;;;;;;;1.35;0.60;;;17.60;66.80;;;;;;5090475;28;20535;-84
2022/06/13 10:13:19;;;;;;;1.25;0.55;;;18.20;61.70;;;;;;5105833;28;20051;-84
2022/06/13 10:15:55;;;;;;;2.38;0.57;;;18.00;63.70;;;;;;5091566;28;21136;-85
2022/06/13 10:18:55;;;;;;;1.27;0.32;;;17.10;65.70;;;;;;5091889;28;20495;-84
2022/06/13 10:21:34;;;;;;;1.77;0.55;;;15.50;68.80;;;;;;5088494;28;20028;-84
2022/06/13 10:24:31;;;;;;;0.93;0.32;;;14.50;74.80;;;;;;5091746;28;20062;-84
2022/06/13 10:27:08;;;;;;;0.63;0.47;;;13.80;79.30;;;;;;5060064;28;20398;-84
2022/06/13 10:29:52;;;;;;;0.82;0.35;;;13.60;80.00;;;;;;5086742;28;20027;-84
2022/06/13 10:32:46;;;;;;;1.00;0.47;;;14.30;81.70;;;;;;5104660;28;20023;-84
2022/06/13 10:35:31;;;;;;;0.85;0.30;;;14.10;78.00;;;;;;5106579;28;20565;-83
2022/06/13 10:38:27;;;;;;;1.08;0.50;;;14.20;78.10;;;;;;5093312;28;20382;-84
2022/06/13 10:40:53;;;;;;;0.73;0.40;;;14.80;75.80;;;;;;5089729;28;20035;-83
2022/06/13 10:43:19;;;;;;;0.95;0.50;;;16.00;77.30;;;;;;5116329;28;20097;-84
2022/06/13 10:45:46;;;;;;;0.98;0.60;;;16.70;74.90;;;;;;5088668;28;20383;-84
2022/06/13 10:48:38;;;;;;;2.17;0.30;;;16.90;71.00;;;;;;5092532;28;20510;-84
2022/06/13 10:51:05;;;;;;;0.20;0.20;;;16.80;71.50;;;;;;5097701;28;20428;-84
2022/06/13 10:53:38;;;;;;;0.80;0.32;;;17.00;69.70;;;;;;5097734;28;20028;-84
2022/06/13 10:56:08;;;;;;;0.90;0.35;;;17.50;68.00;;;;;;5089785;28;20034;-84
2022/06/13 10:58:40;;;;;;;0.30;0.30;;;16.80;66.10;;;;;;5106252;28;20507;-84
2022/06/13 11:01:19;;;;;;;0.80;0.30;;;16.50;67.30;;;;;;5090337;28;20543;-84
2022/06/13 11:04:01;;;;;;;1.35;0.47;;;16.70;68.00;;;;;;5099318;28;20019;-84
2022/06/13 11:06:44;;;;;;;0.50;0.40;;;16.60;67.00;;;;;;5111705;28;20024;-84
2022/06/13 11:09:31;;;;;;;0.80;0.25;;;16.70;69.10;;;;;;5088216;28;20502;-84
2022/06/13 11:12:16;;;;;;;1.13;0.32;;;16.60;66.40;;;;;;5102895;27;20059;-84
2022/06/13 11:23:46;;;;;;;1.25;0.30;;;18.40;61.80;;;;;;5115412;27;20026;-84
2022/06/13 11:28:58;;;;;;;0.52;0.20;;;18.40;58.90;;;;;;5111841;27;20073;-84
2022/06/13 11:31:26;;;;;;;1.08;0.45;;;18.50;58.70;;;;;;5094478;28;20027;-84
2022/06/13 11:33:53;;;;;;;1.10;0.40;;;18.50;58.90;;;;;;5114060;27;20036;-84
2022/06/13 11:36:27;;;;;;;2.22;0.55;;;18.90;57.80;;;;;;5096816;28;20028;-84
2022/06/13 11:39:04;;;;;;;2.85;0.50;;;19.60;59.10;;;;;;5101331;27;20027;-84
2022/06/13 11:41:45;;;;;;;1.52;0.60;;;18.70;58.30;;;;;;5084145;28;20031;-84
2022/06/13 11:44:13;;;;;;;;;;;18.50;60.10;;;;;;5106958;27;20023;-84
2022/06/13 11:46:53;;;;;;;2.25;0.50;;;18.30;60.80;;;;;;5090381;28;20002;-84
2022/06/13 11:49:36;;;;;;;1.05;0.40;;;17.80;60.90;;;;;;5110166;27;20045;-84
2022/06/13 11:52:05;;;;;;;1.65;0.40;;;18.00;61.70;;;;;;5105374;27;20031;-84
2022/06/13 11:54:48;;;;;;;2.38;0.55;;;19.00;60.60;;;;;;5092123;28;20483;-84
2022/06/13 11:57:29;;;;;;;2.00;0.50;;;18.50;59.80;;;;;;5083741;28;20409;-84
2022/06/13 12:00:21;;;;;;;2.78;0.77;;;17.80;60.70;;;;;;5101770;27;20023;-84
2022/06/13 12:02:49;;;;;;;1.42;0.40;;;17.70;63.20;;;;;;5091443;28;20498;-84
2022/06/13 12:05:39;;;;;;;2.05;0.35;;;17.30;62.60;;;;;;5096652;28;20110;-84
2022/06/13 12:08:14;;;;;;;2.42;0.43;;;17.20;63.50;;;;;;5096089;27;20498;-84
2022/06/13 12:10:41;;;;;;;2.35;0.52;;;17.10;63.60;;;;;;5112566;28;20031;-83
2022/06/13 12:13:16;;;;;;;2.97;0.60;;;18.10;60.80;;;;;;5068921;28;20052;-84
2022/06/13 12:16:00;;;;;;;2.10;0.50;;;19.00;58.90;;;;;;5073536;28;20038;-85
2022/06/13 12:18:47;;;;;;;2.78;0.50;;;19.30;56.70;;;;;;5086301;28;20046;-83
2022/06/13 12:21:35;;;;;;;1.92;0.50;;;18.80;58.60;;;;;;5071797;28;20039;-83
2022/06/13 12:24:15;;;;;;;2.65;0.65;;;18.50;58.80;;;;;;5065985;28;20050;-83
2022/06/13 12:26:46;;;;;;;2.65;0.60;;;18.20;60.90;;;;;;5065019;28;20587;-83
2022/06/13 12:29:21;;;;;;;4.82;0.57;;;17.70;61.00;;;;;;5068736;28;20722;-83
2022/06/13 12:31:54;;;;;;;3.22;0.68;;;17.80;59.30;;;;;;5089123;28;20023;-84
2022/06/13 12:34:25;;;;;;;1.65;0.47;;;18.60;56.30;;;;;;5087134;28;20472;-83
2022/06/13 12:37:09;;;;;;;2.70;0.52;;;18.80;56.10;;;;;;5084181;28;20067;-84
2022/06/13 12:39:51;;;;;;;2.88;0.70;;;20.00;54.50;;;;;;5078489;28;20414;-84
2022/06/13 12:42:49;;;;;;;3.70;0.73;;;19.00;54.40;;;;;;5086981;28;20487;-84
2022/06/13 12:45:39;;;;;;;2.75;0.43;;;18.10;58.60;;;;;;5079513;28;20028;-84
2022/06/13 12:48:15;;;;;;;1.70;0.60;;;17.60;60.50;;;;;;5084905;28;20056;-84
2022/06/13 12:51:11;;;;;;;2.95;0.63;;;17.50;61.60;;;;;;5066679;28;20024;-84
2022/06/13 12:53:52;;;;;;;5.95;0.73;;;17.10;62.00;;;;;;5085705;28;20554;-84
2022/06/13 12:56:30;;;;;;;2.10;0.52;;;17.10;60.70;;;;;;5065815;28;20402;-84
2022/06/13 12:59:17;;;;;;;2.42;0.50;;;17.50;61.20;;;;;;5072797;28;20032;-84
2022/06/13 13:01:57;;;;;;;1.65;0.30;;;17.80;60.20;;;;;;5075458;28;20028;-84
2022/06/13 13:04:38;;;;;;;3.15;0.50;;;18.10;57.90;;;;;;5086776;28;20111;-83
2022/06/13 13:07:13;;;;;;;2.00;0.57;;;18.80;57.30;;;;;;5075612;28;20062;-84
2022/06/13 13:09:45;;;;;;;1.98;0.70;;;18.80;55.70;;;;;;5084588;28;20451;-84
2022/06/13 13:12:53;;;;;;;1.92;0.50;;;19.00;56.20;;;;;;5097917;28;20122;-84
2022/06/13 13:15:31;;;;;;;0.73;0.35;;;18.50;55.50;;;;;;5106193;27;21974;-84
2022/06/13 13:18:08;;;;;;;2.78;0.30;;;19.10;53.50;;;;;;5107098;28;20089;-84
2022/06/13 13:20:43;;;;;;;1.77;0.57;;;18.70;52.50;;;;;;5087580;28;20687;-84
2022/06/13 13:23:22;;;;;;;3.97;0.43;;;18.70;54.50;;;;;;5111541;27;20438;-83
2022/06/13 13:26:14;;;;;;;1.67;0.30;;;19.50;52.20;;;;;;5087235;28;20031;-83
2022/06/13 13:28:59;;;;;;;3.08;0.77;;;20.60;49.70;;;;;;5088251;28;20031;-83
2022/06/13 13:31:46;;;;;;;3.90;0.47;;;20.40;50.10;;;;;;5092874;28;20027;-84
2022/06/13 13:34:23;;;;;;;2.00;0.40;;;20.00;52.20;;;;;;5089322;28;20023;-83
2022/06/13 13:37:19;;;;;;;2.70;0.50;;;19.20;53.30;;;;;;5091271;28;20479;-83
2022/06/13 13:39:52;;;;;;;2.83;0.75;;;19.40;54.60;;;;;;5113878;27;20019;-83
2022/06/13 13:42:55;;;;;;;1.27;0.32;;;19.20;55.10;;;;;;5091511;28;20026;-83